Time;durP1;ratioP1;P1;durP2;ratioP2;P2;SDS_P1;SDS_P2;PMS_P1;PMS_P2;Temp;Humidity;BMP_temperature;BMP_pressure;BME280_temperature;BME280_humidity;BME280_pressure;Samples;Min_cycle;Max_cycle;Signal;HPM_P1;HPM_P2
2022/08/15 00:02:21;;;;;;;21.30;16.40;;;;;;;;;;5072596;28;20420;-72
2022/08/15 00:05:08;;;;;;;21.53;18.50;;;;;;;;;;5071175;28;20432;-72
2022/08/15 00:07:36;;;;;;;25.43;21.43;;;;;;;;;;5063816;28;20532;-72
2022/08/15 00:10:16;;;;;;;32.10;25.27;;;;;;;;;;5069238;28;20428;-72
2022/08/15 00:13:14;;;;;;;34.93;30.10;;;;;;;;;;5049751;28;20540;-72
2022/08/15 00:15:42;;;;;;;36.93;29.33;;;;;;;;;;5072856;28;20436;-72
2022/08/15 00:18:09;;;;;;;44.53;34.30;;;;;;;;;;5084434;28;20505;-72
2022/08/15 00:20:37;;;;;;;37.17;27.70;;;;;;;;;;5071048;28;20428;-72
2022/08/15 00:23:07;;;;;;;37.93;28.10;;;;;;;;;;5070701;28;20537;-72
2022/08/15 00:25:37;;;;;;;37.07;25.70;;;;;;;;;;5072165;28;20416;-72
2022/08/15 00:28:06;;;;;;;28.37;23.70;;;;;;;;;;5071230;28;20441;-72
2022/08/15 00:30:39;;;;;;;26.53;22.63;;;;;;;;;;5081759;28;20486;-72
2022/08/15 00:33:24;;;;;;;32.53;23.63;;;;;;;;;;5077405;28;20436;-72
2022/08/15 00:35:52;;;;;;;31.77;26.60;;;;;;;;;;5092120;28;20769;-72
2022/08/15 00:38:39;;;;;;;36.20;25.40;;;;;;;;;;5059058;28;20559;-72
2022/08/15 00:44:03;;;;;;;31.50;24.77;;;;;;;;;;5077955;28;20509;-72
2022/08/15 00:46:33;;;;;;;37.27;28.10;;;;;;;;;;5070443;28;20453;-72
2022/08/15 00:49:01;;;;;;;36.20;27.53;;;;;;;;;;5070201;28;20536;-71
2022/08/15 00:51:38;;;;;;;42.97;29.77;;;;;;;;;;5071862;28;20424;-72
2022/08/15 00:54:10;;;;;;;40.53;29.70;;;;;;;;;;5070318;28;20436;-72
2022/08/15 00:57:02;;;;;;;38.67;28.77;;;;;;;;;;5075011;28;20444;-72
2022/08/15 00:59:39;;;;;;;39.40;26.77;;;;;;;;;;5093302;28;20440;-71
2022/08/15 01:02:10;;;;;;;33.30;26.60;;;;;;;;;;5092673;28;20412;-71
2022/08/15 01:04:58;;;;;;;33.10;25.90;;;;;;;;;;5092851;28;20436;-71
2022/08/15 01:07:27;;;;;;;31.43;26.00;;;;;;;;;;5077667;28;20427;-72
2022/08/15 01:09:54;;;;;;;38.17;27.40;;;;;;;;;;5078577;28;20463;-72
2022/08/15 01:12:22;;;;;;;37.10;25.43;;;;;;;;;;5047811;28;20465;-71
2022/08/15 01:14:57;;;;;;;38.57;26.80;;;;;;;;;;5062883;28;20437;-71
2022/08/15 01:17:25;;;;;;;55.43;40.70;;;;;;;;;;5053436;28;20462;-71
2022/08/15 01:19:55;;;;;;;44.37;38.40;;;;;;;;;;5064740;28;20498;-72
2022/08/15 01:22:47;;;;;;;45.17;35.10;;;;;;;;;;5078028;28;20435;-71
2022/08/15 01:25:15;;;;;;;50.53;34.87;;;;;;;;;;5085467;28;20536;-71
2022/08/15 01:28:06;;;;;;;56.67;35.53;;;;;;;;;;5084055;28;20478;-71
2022/08/15 01:30:46;;;;;;;42.50;36.37;;;;;;;;;;5073422;28;20427;-72
2022/08/15 01:33:31;;;;;;;55.60;39.10;;;;;;;;;;5075602;28;20436;-72
2022/08/15 01:35:59;;;;;;;54.70;39.90;;;;;;;;;;5077017;28;20859;-72
2022/08/15 01:38:32;;;;;;;49.23;39.07;;;;;;;;;;5075588;28;20460;-71
2022/08/15 01:41:38;;;;;;;64.43;44.50;;;;;;;;;;5059547;28;20459;-71
2022/08/15 01:44:10;;;;;;;58.93;43.80;;;;;;;;;;5069658;28;20452;-71
2022/08/15 01:47:05;;;;;;;58.10;42.00;;;;;;;;;;5059187;28;20502;-71
2022/08/15 01:49:42;;;;;;;64.30;45.37;;;;;;;;;;5060628;28;20446;-71
2022/08/15 01:52:10;;;;;;;78.17;52.30;;;;;;;;;;5077933;28;20908;-71
2022/08/15 01:54:58;;;;;;;63.83;45.70;;;;;;;;;;5057798;28;20486;-71
2022/08/15 01:57:33;;;;;;;64.87;46.43;;;;;;;;;;5058950;28;20453;-71
2022/08/15 02:00:00;;;;;;;72.73;47.47;;;;;;;;;;5073220;28;20439;-71
2022/08/15 02:02:28;;;;;;;76.93;46.50;;;;;;;;;;5073117;28;20447;-71
2022/08/15 02:05:12;;;;;;;58.37;45.77;;;;;;;;;;5073950;28;20522;-71
2022/08/15 02:07:41;;;;;;;61.80;44.30;;;;;;;;;;5082121;28;20452;-71
2022/08/15 02:10:28;;;;;;;52.47;41.27;;;;;;;;;;5069445;28;20486;-71
2022/08/15 02:12:54;;;;;;;52.67;42.07;;;;;;;;;;5060865;28;20429;-71
2022/08/15 02:15:36;;;;;;;59.47;41.27;;;;;;;;;;5069703;28;20975;-71
2022/08/15 02:18:03;;;;;;;54.37;42.13;;;;;;;;;;5069205;28;20556;-71
2022/08/15 02:20:31;;;;;;;56.57;38.90;;;;;;;;;;5082886;28;20889;-71
2022/08/15 02:23:07;;;;;;;54.87;39.70;;;;;;;;;;5072521;28;21192;-71
2022/08/15 02:25:45;;;;;;;55.37;38.07;;;;;;;;;;5054444;28;20420;-71
2022/08/15 02:28:12;;;;;;;56.07;37.83;;;;;;;;;;5082660;28;20484;-71
2022/08/15 02:31:01;;;;;;;48.67;39.17;;;;;;;;;;5091569;28;20417;-71
2022/08/15 02:33:28;;;;;;;54.03;41.40;;;;;;;;;;5091220;28;20491;-71
2022/08/15 02:36:02;;;;;;;48.47;38.43;;;;;;;;;;5105460;28;20428;-71
2022/08/15 02:38:30;;;;;;;53.03;40.33;;;;;;;;;;5080743;28;20449;-71
2022/08/15 02:41:23;;;;;;;49.73;40.03;;;;;;;;;;5069192;28;20452;-72
2022/08/15 02:43:50;;;;;;;46.10;37.83;;;;;;;;;;5058062;28;20522;-71
2022/08/15 02:46:19;;;;;;;52.93;44.17;;;;;;;;;;5085762;28;20822;-71
2022/08/15 02:49:01;;;;;;;49.50;37.87;;;;;;;;;;5075845;28;20486;-71
2022/08/15 02:51:35;;;;;;;51.63;38.03;;;;;;;;;;5076523;28;20424;-71
2022/08/15 02:54:26;;;;;;;52.13;38.67;;;;;;;;;;5079004;28;20470;-71
2022/08/15 02:57:06;;;;;;;51.30;38.07;;;;;;;;;;5059534;28;20812;-71
2022/08/15 02:59:36;;;;;;;52.20;38.60;;;;;;;;;;5092973;28;20462;-71
2022/08/15 03:02:07;;;;;;;47.40;38.50;;;;;;;;;;5077257;28;20439;-71
2022/08/15 03:04:54;;;;;;;49.47;37.13;;;;;;;;;;5058593;28;20448;-71
2022/08/15 03:07:20;;;;;;;56.43;38.93;;;;;;;;;;5077011;28;20424;-72
2022/08/15 03:09:48;;;;;;;55.20;39.50;;;;;;;;;;5092523;28;20431;-72
2022/08/15 03:12:25;;;;;;;47.80;35.33;;;;;;;;;;5062180;28;20443;-71
2022/08/15 03:15:03;;;;;;;58.53;39.63;;;;;;;;;;5076306;28;20452;-71
2022/08/15 03:17:32;;;;;;;55.27;39.33;;;;;;;;;;5067132;28;20465;-71
2022/08/15 03:20:03;;;;;;;51.13;40.77;;;;;;;;;;5087912;28;21220;-71
2022/08/15 03:22:44;;;;;;;50.87;40.63;;;;;;;;;;5066042;28;20433;-71
2022/08/15 03:25:17;;;;;;;57.00;41.10;;;;;;;;;;5077488;28;20479;-71
2022/08/15 03:27:57;;;;;;;50.63;39.10;;;;;;;;;;5091158;28;20463;-71
2022/08/15 03:30:23;;;;;;;62.43;39.17;;;;;;;;;;5071967;28;20963;-71
2022/08/15 03:32:55;;;;;;;57.50;39.40;;;;;;;;;;5071809;28;20849;-71
2022/08/15 03:35:27;;;;;;;58.60;40.37;;;;;;;;;;5055849;28;20523;-71
2022/08/15 03:37:59;;;;;;;51.87;41.17;;;;;;;;;;5056295;28;20464;-71
2022/08/15 03:40:35;;;;;;;48.93;40.13;;;;;;;;;;5071807;28;20528;-71
2022/08/15 03:43:06;;;;;;;67.50;46.87;;;;;;;;;;5076229;28;20444;-71
2022/08/15 03:45:46;;;;;;;63.53;47.40;;;;;;;;;;5091854;28;20793;-71
2022/08/15 03:48:21;;;;;;;69.30;47.47;;;;;;;;;;5083691;28;21044;-71
2022/08/15 03:50:53;;;;;;;83.57;55.87;;;;;;;;;;5073717;28;20944;-71
2022/08/15 03:53:27;;;;;;;78.30;58.40;;;;;;;;;;5091710;28;20423;-71
2022/08/15 03:55:56;;;;;;;71.13;51.30;;;;;;;;;;5074077;28;20952;-71
2022/08/15 03:58:25;;;;;;;84.13;55.67;;;;;;;;;;5071354;28;20461;-71
2022/08/15 04:01:05;;;;;;;72.13;54.70;;;;;;;;;;5070873;28;20437;-71
2022/08/15 04:03:32;;;;;;;71.67;55.23;;;;;;;;;;5071069;28;20436;-71
2022/08/15 04:06:00;;;;;;;73.57;53.10;;;;;;;;;;5060457;28;20436;-71
2022/08/15 04:08:34;;;;;;;86.33;57.80;;;;;;;;;;5087920;28;20456;-71
2022/08/15 04:11:24;;;;;;;92.00;59.47;;;;;;;;;;5085457;28;20434;-71
2022/08/15 04:14:06;;;;;;;76.00;56.10;;;;;;;;;;5112352;28;20429;-71
2022/08/15 04:16:54;;;;;;;90.03;59.80;;;;;;;;;;5085177;28;20428;-71
2022/08/15 04:19:32;;;;;;;93.93;58.60;;;;;;;;;;5082546;28;20455;-71
2022/08/15 04:22:17;;;;;;;93.93;63.40;;;;;;;;;;5044273;28;20444;-71
2022/08/15 04:25:09;;;;;;;96.40;61.67;;;;;;;;;;5057396;28;20972;-71
2022/08/15 04:27:50;;;;;;;120.83;72.20;;;;;;;;;;5087571;28;20460;-71
2022/08/15 04:30:23;;;;;;;134.50;81.40;;;;;;;;;;5087876;28;20436;-71
2022/08/15 04:32:56;;;;;;;117.07;77.10;;;;;;;;;;5052080;28;20437;-71
2022/08/15 04:35:44;;;;;;;120.37;79.90;;;;;;;;;;5070600;28;20464;-71
2022/08/15 04:38:12;;;;;;;108.37;70.97;;;;;;;;;;5068527;28;20568;-71
2022/08/15 04:40:43;;;;;;;111.80;73.70;;;;;;;;;;5075563;28;20436;-71
2022/08/15 04:43:31;;;;;;;106.73;69.37;;;;;;;;;;5058948;28;20519;-72
2022/08/15 04:45:58;;;;;;;89.03;61.80;;;;;;;;;;5070271;28;20473;-71
2022/08/15 04:48:26;;;;;;;89.00;57.23;;;;;;;;;;5053795;28;20453;-71
2022/08/15 04:50:54;;;;;;;72.70;53.07;;;;;;;;;;5083838;28;20481;-71
2022/08/15 04:53:24;;;;;;;83.20;59.97;;;;;;;;;;5079987;28;20818;-71
2022/08/15 04:55:58;;;;;;;88.50;61.33;;;;;;;;;;5056853;28;20928;-71
2022/08/15 04:58:26;;;;;;;89.43;62.83;;;;;;;;;;5070191;28;20467;-71
2022/08/15 05:01:14;;;;;;;91.73;61.83;;;;;;;;;;5079818;28;20450;-71
2022/08/15 05:03:52;;;;;;;87.00;59.27;;;;;;;;;;5081934;28;20435;-71
2022/08/15 05:06:20;;;;;;;71.90;51.07;;;;;;;;;;5073850;28;20424;-71
2022/08/15 05:09:01;;;;;;;54.17;44.10;;;;;;;;;;5090220;28;20459;-71
2022/08/15 05:11:29;;;;;;;67.97;46.37;;;;;;;;;;5062040;28;20446;-71
2022/08/15 05:14:16;;;;;;;62.33;46.00;;;;;;;;;;5069272;28;21391;-71
2022/08/15 05:17:04;;;;;;;69.30;46.10;;;;;;;;;;5055983;28;20445;-71
2022/08/15 05:19:34;;;;;;;69.13;48.67;;;;;;;;;;5049762;28;20983;-71
2022/08/15 05:22:03;;;;;;;73.97;48.80;;;;;;;;;;5070044;28;20441;-71
2022/08/15 05:24:31;;;;;;;68.33;48.63;;;;;;;;;;5049727;28;20457;-71
2022/08/15 05:26:59;;;;;;;67.63;48.47;;;;;;;;;;5069229;28;20886;-71
2022/08/15 05:29:30;;;;;;;59.03;45.70;;;;;;;;;;5069659;28;20471;-71
2022/08/15 05:31:58;;;;;;;53.53;38.13;;;;;;;;;;5062225;28;20437;-71
2022/08/15 05:34:25;;;;;;;46.97;34.63;;;;;;;;;;5078047;28;20434;-71
2022/08/15 05:37:11;;;;;;;43.40;35.07;;;;;;;;;;5079902;28;20419;-71
2022/08/15 05:39:42;;;;;;;40.13;35.30;;;;;;;;;;5056168;28;20479;-71
2022/08/15 05:42:12;;;;;;;46.67;35.80;;;;;;;;;;5069624;28;20443;-71
2022/08/15 05:44:44;;;;;;;42.07;33.97;;;;;;;;;;5044832;28;20460;-71
2022/08/15 05:47:20;;;;;;;41.40;32.83;;;;;;;;;;5073681;28;20811;-71
2022/08/15 05:49:52;;;;;;;46.30;32.30;;;;;;;;;;5056811;28;20442;-71
2022/08/15 05:52:37;;;;;;;32.20;27.27;;;;;;;;;;5082971;28;20497;-71
2022/08/15 05:55:23;;;;;;;32.20;26.87;;;;;;;;;;5054155;28;20489;-71
2022/08/15 05:58:10;;;;;;;41.17;30.07;;;;;;;;;;5086490;28;20460;-71
2022/08/15 06:01:10;;;;;;;32.70;26.20;;;;;;;;;;5066181;28;20452;-71
2022/08/15 06:03:44;;;;;;;35.73;28.27;;;;;;;;;;5078693;28;21013;-71
2022/08/15 06:06:18;;;;;;;30.40;26.90;;;;;;;;;;5058656;28;20443;-71
2022/08/15 06:08:59;;;;;;;19.17;17.17;;;;;;;;;;5074245;28;20504;-72
2022/08/15 06:11:33;;;;;;;15.67;14.27;;;;;;;;;;5066220;28;20473;-72
2022/08/15 06:14:21;;;;;;;14.80;13.50;;;;;;;;;;5106089;28;20996;-72
2022/08/15 06:17:04;;;;;;;15.33;13.37;;;;;;;;;;5071577;28;20861;-72
2022/08/15 06:19:33;;;;;;;14.47;12.97;;;;;;;;;;5069294;28;20452;-71
2022/08/15 06:22:19;;;;;;;16.43;12.53;;;;;;;;;;5075116;28;20443;-71
2022/08/15 06:25:04;;;;;;;13.43;12.23;;;;;;;;;;5091291;28;20494;-71
2022/08/15 06:27:40;;;;;;;13.43;12.30;;;;;;;;;;5093946;28;20440;-71
2022/08/15 06:30:31;;;;;;;14.93;13.73;;;;;;;;;;5069686;28;20436;-71
2022/08/15 06:33:19;;;;;;;12.50;11.50;;;;;;;;;;5065213;28;20439;-71
2022/08/15 06:35:57;;;;;;;12.20;11.20;;;;;;;;;;5084728;28;20450;-71
2022/08/15 06:38:34;;;;;;;13.73;12.50;;;;;;;;;;5077099;28;21033;-71
2022/08/15 06:41:26;;;;;;;12.23;11.13;;;;;;;;;;5086244;28;20439;-71
2022/08/15 06:43:59;;;;;;;13.43;12.17;;;;;;;;;;5076745;28;20494;-71
2022/08/15 06:46:38;;;;;;;12.13;11.03;;;;;;;;;;5060322;28;20432;-71
2022/08/15 06:49:21;;;;;;;13.37;12.17;;;;;;;;;;5072592;28;20457;-71
2022/08/15 06:51:51;;;;;;;12.47;11.47;;;;;;;;;;5061858;28;20972;-71
2022/08/15 06:54:22;;;;;;;11.50;10.30;;;;;;;;;;5083882;28;20464;-71
2022/08/15 06:57:20;;;;;;;12.03;10.70;;;;;;;;;;5072778;28;20468;-71
2022/08/15 07:00:09;;;;;;;12.70;11.60;;;;;;;;;;5061993;28;20443;-71
2022/08/15 07:03:10;;;;;;;11.47;10.40;;;;;;;;;;5056281;28;21030;-71
2022/08/15 07:05:50;;;;;;;10.60;9.70;;;;;;;;;;5065580;28;20464;-71
2022/08/15 07:08:26;;;;;;;14.77;13.27;;;;;;;;;;5064950;28;20452;-71
2022/08/15 07:10:58;;;;;;;9.67;8.77;;;;;;;;;;5079720;28;20419;-72
2022/08/15 07:13:44;;;;;;;10.53;9.20;;;;;;;;;;5092341;28;20930;-72
2022/08/15 07:16:50;;;;;;;9.13;8.33;;;;;;;;;;5078552;28;21115;-72
2022/08/15 07:19:19;;;;;;;9.80;8.97;;;;;;;;;;5078968;28;20507;-72
2022/08/15 07:21:57;;;;;;;8.90;8.10;;;;;;;;;;5087067;28;20487;-72
2022/08/15 07:24:27;;;;;;;8.13;7.40;;;;;;;;;;5055817;28;20523;-72
2022/08/15 07:27:02;;;;;;;9.33;8.53;;;;;;;;;;5078543;28;20438;-72
2022/08/15 07:29:38;;;;;;;8.77;7.97;;;;;;;;;;5062182;28;20467;-72
2022/08/15 07:32:07;;;;;;;9.33;8.47;;;;;;;;;;5064621;28;20465;-72
2022/08/15 07:34:54;;;;;;;8.63;7.70;;;;;;;;;;5073698;28;20429;-72
2022/08/15 07:37:32;;;;;;;9.53;7.77;;;;;;;;;;5055728;28;21055;-72
2022/08/15 07:40:14;;;;;;;11.23;9.90;;;;;;;;;;5051217;28;20515;-72
2022/08/15 07:42:44;;;;;;;10.23;9.33;;;;;;;;;;5078521;28;20432;-72
2022/08/15 07:45:35;;;;;;;9.20;8.40;;;;;;;;;;5068284;28;20473;-72
2022/08/15 07:48:16;;;;;;;9.77;8.87;;;;;;;;;;5080143;28;20459;-72
2022/08/15 07:51:00;;;;;;;9.30;8.50;;;;;;;;;;5073249;28;20527;-72
2022/08/15 07:53:28;;;;;;;11.67;9.60;;;;;;;;;;5055300;28;20429;-72
2022/08/15 07:56:04;;;;;;;9.47;8.67;;;;;;;;;;5059015;28;20506;-72
2022/08/15 07:59:06;;;;;;;9.47;8.67;;;;;;;;;;5073602;28;20463;-72
2022/08/15 08:01:35;;;;;;;11.73;8.47;;;;;;;;;;5079991;28;20441;-72
2022/08/15 08:04:17;;;;;;;8.47;7.77;;;;;;;;;;5085083;28;20440;-72
2022/08/15 08:07:14;;;;;;;6.90;6.30;;;;;;;;;;5074344;28;21022;-72
2022/08/15 08:09:59;;;;;;;6.50;6.00;;;;;;;;;;5068696;28;20440;-72
2022/08/15 08:12:52;;;;;;;11.83;6.30;;;;;;;;;;5071138;28;20428;-72
2022/08/15 08:15:32;;;;;;;7.30;6.60;;;;;;;;;;5059041;28;20427;-72
2022/08/15 08:18:09;;;;;;;6.00;5.50;;;;;;;;;;5090875;28;20556;-72
2022/08/15 08:20:55;;;;;;;6.80;6.20;;;;;;;;;;5091195;28;20435;-72
2022/08/15 08:23:26;;;;;;;6.37;5.80;;;;;;;;;;5091107;28;20468;-72
2022/08/15 08:26:14;;;;;;;6.83;6.23;;;;;;;;;;5091096;28;20455;-72
2022/08/15 08:28:50;;;;;;;8.37;7.50;;;;;;;;;;5063746;28;20464;-72
2022/08/15 08:31:31;;;;;;;6.60;6.00;;;;;;;;;;5065900;28;20436;-72
2022/08/15 08:34:20;;;;;;;6.50;6.00;;;;;;;;;;5070773;28;20952;-73
2022/08/15 08:37:29;;;;;;;7.00;6.40;;;;;;;;;;5057057;28;20467;-73
2022/08/15 08:41:24;;;;;;;7.43;6.70;;;;;;;;;;5083965;28;20447;-73
2022/08/15 08:42:57;;;;;;;7.93;5.87;;;;;;;;;;5071847;28;20432;-73
2022/08/15 08:45:52;;;;;;;8.17;6.60;;;;;;;;;;5071751;28;20463;-73
2022/08/15 08:48:46;;;;;;;6.47;5.93;;;;;;;;;;5068272;28;20506;-72
2022/08/15 08:51:44;;;;;;;8.50;6.00;;;;;;;;;;5071812;28;20433;-72
2022/08/15 08:54:14;;;;;;;10.97;6.73;;;;;;;;;;5050137;28;20436;-72
2022/08/15 08:57:01;;;;;;;5.50;5.07;;;;;;;;;;5050114;28;20430;-72
2022/08/15 08:59:35;;;;;;;8.03;7.17;;;;;;;;;;5057183;28;20456;-72
2022/08/15 09:02:09;;;;;;;10.23;6.70;;;;;;;;;;5071504;28;20423;-72
2022/08/15 09:05:08;;;;;;;6.30;5.53;;;;;;;;;;5092035;28;20452;-72
2022/08/15 09:07:37;;;;;;;6.73;5.80;;;;;;;;;;5090621;28;20427;-72
2022/08/15 09:10:07;;;;;;;6.50;6.00;;;;;;;;;;5076364;28;20956;-72
2022/08/15 09:15:28;;;;;;;6.90;6.20;;;;;;;;;;5083728;28;20432;-72
2022/08/15 09:18:17;;;;;;;7.63;6.10;;;;;;;;;;5074143;28;20905;-72
2022/08/15 09:20:46;;;;;;;10.83;6.23;;;;;;;;;;5090629;28;20787;-72
2022/08/15 09:23:20;;;;;;;8.00;6.50;;;;;;;;;;5080565;28;20493;-73
2022/08/15 09:26:17;;;;;;;7.00;6.30;;;;;;;;;;5055974;28;20476;-72
2022/08/15 09:28:50;;;;;;;9.77;6.63;;;;;;;;;;5085363;28;20492;-72
2022/08/15 09:31:23;;;;;;;8.00;6.80;;;;;;;;;;5071627;28;20416;-74
2022/08/15 09:33:56;;;;;;;6.93;5.83;;;;;;;;;;5080769;28;20417;-71
2022/08/15 09:36:25;;;;;;;7.83;7.13;;;;;;;;;;5095966;28;21006;-73
2022/08/15 09:38:53;;;;;;;6.73;6.20;;;;;;;;;;5101411;28;20849;-72
2022/08/15 09:41:42;;;;;;;6.20;5.50;;;;;;;;;;5083481;28;20460;-72
2022/08/15 09:44:23;;;;;;;7.50;6.70;;;;;;;;;;5061611;28;20424;-72
2022/08/15 09:47:16;;;;;;;8.30;6.13;;;;;;;;;;5082957;28;20456;-73
2022/08/15 09:50:04;;;;;;;7.70;6.37;;;;;;;;;;5097515;28;20420;-73
2022/08/15 09:53:03;;;;;;;7.63;7.03;;;;;;;;;;5078260;28;20480;-73
2022/08/15 09:55:32;;;;;;;7.17;6.50;;;;;;;;;;5076666;28;20430;-73
2022/08/15 09:58:11;;;;;;;7.37;6.73;;;;;;;;;;5093358;28;20443;-72
2022/08/15 10:00:53;;;;;;;10.47;7.50;;;;;;;;;;5095921;28;20435;-73
2022/08/15 10:03:24;;;;;;;8.37;7.30;;;;;;;;;;5070155;28;20428;-73
2022/08/15 10:06:04;;;;;;;8.47;7.70;;;;;;;;;;5073519;28;20479;-73
2022/08/15 10:08:54;;;;;;;7.97;6.17;;;;;;;;;;5091258;28;20530;-72
2022/08/15 10:11:28;;;;;;;9.60;6.20;;;;;;;;;;5087112;28;20914;-73
2022/08/15 10:14:05;;;;;;;7.77;6.57;;;;;;;;;;5077617;28;20433;-73
2022/08/15 10:16:39;;;;;;;8.07;5.93;;;;;;;;;;5077208;28;20431;-73
2022/08/15 10:19:25;;;;;;;13.13;5.93;;;;;;;;;;5092902;28;20448;-73
2022/08/15 10:22:00;;;;;;;7.13;6.43;;;;;;;;;;5064216;28;20515;-73
2022/08/15 10:24:32;;;;;;;7.20;6.00;;;;;;;;;;5091401;28;20453;-73
2022/08/15 10:27:08;;;;;;;7.53;5.47;;;;;;;;;;5100714;28;20858;-73
2022/08/15 10:29:47;;;;;;;6.63;5.83;;;;;;;;;;5101858;28;20471;-74
2022/08/15 10:32:39;;;;;;;6.17;5.57;;;;;;;;;;5089432;28;20883;-74
2022/08/15 10:35:25;;;;;;;7.23;6.53;;;;;;;;;;5056788;28;20431;-73
2022/08/15 10:37:54;;;;;;;5.87;5.37;;;;;;;;;;5061311;28;20563;-73
2022/08/15 10:40:27;;;;;;;6.17;5.40;;;;;;;;;;5089143;28;20432;-74
2022/08/15 10:43:03;;;;;;;5.70;5.00;;;;;;;;;;5079522;28;20438;-73
2022/08/15 10:45:54;;;;;;;5.53;4.90;;;;;;;;;;5108416;28;20455;-73
2022/08/15 10:48:21;;;;;;;4.50;4.10;;;;;;;;;;5053096;28;20469;-73
2022/08/15 10:51:27;;;;;;;4.90;4.47;;;;;;;;;;5074763;28;20424;-74
2022/08/15 10:54:12;;;;;;;4.20;3.90;;;;;;;;;;5093499;28;20450;-73
2022/08/15 10:56:44;;;;;;;4.37;4.03;;;;;;;;;;5076918;28;20882;-73
2022/08/15 10:59:36;;;;;;;7.93;4.90;;;;;;;;;;5060128;28;20448;-73
2022/08/15 11:02:07;;;;;;;5.57;5.07;;;;;;;;;;5059024;28;20441;-73
2022/08/15 11:04:43;;;;;;;5.87;5.27;;;;;;;;;;5096275;28;20418;-73
2022/08/15 11:07:27;;;;;;;7.07;4.60;;;;;;;;;;5075450;28;20980;-73
2022/08/15 11:09:56;;;;;;;7.30;5.70;;;;;;;;;;5073769;28;20488;-73
2022/08/15 11:12:24;;;;;;;4.73;4.13;;;;;;;;;;5069998;28;20456;-73
2022/08/15 11:14:55;;;;;;;6.13;5.30;;;;;;;;;;5092402;28;20435;-73
2022/08/15 11:17:26;;;;;;;5.13;4.53;;;;;;;;;;5085292;28;20867;-73
2022/08/15 11:20:16;;;;;;;5.10;4.70;;;;;;;;;;5076338;28;20436;-73
2022/08/15 11:23:04;;;;;;;6.43;4.40;;;;;;;;;;5071483;28;20428;-74
2022/08/15 11:25:33;;;;;;;4.60;4.20;;;;;;;;;;5075828;28;20464;-74
2022/08/15 11:28:06;;;;;;;4.93;4.53;;;;;;;;;;5087393;28;20445;-74
2022/08/15 11:31:06;;;;;;;11.20;5.10;;;;;;;;;;5087551;28;20452;-73
2022/08/15 11:33:43;;;;;;;6.93;4.50;;;;;;;;;;5078046;28;20416;-74
2022/08/15 11:36:22;;;;;;;5.47;4.87;;;;;;;;;;5072395;28;20433;-74
2022/08/15 11:38:51;;;;;;;8.50;5.30;;;;;;;;;;5073409;28;20803;-74
2022/08/15 11:41:39;;;;;;;5.73;5.23;;;;;;;;;;5073328;28;20425;-74
2022/08/15 11:44:20;;;;;;;5.00;4.53;;;;;;;;;;5073015;28;20435;-74
2022/08/15 11:46:49;;;;;;;5.20;4.70;;;;;;;;;;5071492;28;20467;-74
2022/08/15 11:49:29;;;;;;;5.93;4.40;;;;;;;;;;5074492;28;20459;-74
2022/08/15 11:52:00;;;;;;;6.43;5.07;;;;;;;;;;5075157;28;20461;-74
2022/08/15 11:55:06;;;;;;;6.03;5.50;;;;;;;;;;5083578;28;20456;-74
2022/08/15 11:57:54;;;;;;;10.00;4.80;;;;;;;;;;5071273;28;20482;-74
2022/08/15 12:00:22;;;;;;;7.17;5.33;;;;;;;;;;5058278;28;20479;-74
2022/08/15 12:02:54;;;;;;;7.40;6.70;;;;;;;;;;5072662;28;20420;-74
2022/08/15 12:05:34;;;;;;;4.80;4.30;;;;;;;;;;5071087;28;20432;-74
2022/08/15 12:08:23;;;;;;;6.73;5.43;;;;;;;;;;5072484;28;20449;-74
2022/08/15 12:11:15;;;;;;;4.90;4.43;;;;;;;;;;5070588;28;20438;-74
2022/08/15 12:13:57;;;;;;;5.93;5.30;;;;;;;;;;5068387;28;20432;-75
2022/08/15 12:16:31;;;;;;;6.53;5.50;;;;;;;;;;5071139;28;20511;-74
2022/08/15 12:19:19;;;;;;;4.60;4.30;;;;;;;;;;5067302;28;21072;-75
2022/08/15 12:21:51;;;;;;;5.27;4.63;;;;;;;;;;5070766;28;20865;-74
2022/08/15 12:24:38;;;;;;;5.03;4.60;;;;;;;;;;5072236;28;20459;-75
2022/08/15 12:27:14;;;;;;;4.17;3.87;;;;;;;;;;5067402;28;20456;-74
2022/08/15 12:29:44;;;;;;;4.70;4.40;;;;;;;;;;5051609;28;20506;-75
2022/08/15 12:32:16;;;;;;;5.87;5.20;;;;;;;;;;5091006;28;20431;-74
2022/08/15 12:35:03;;;;;;;4.73;4.33;;;;;;;;;;5097335;28;20432;-75
2022/08/15 12:37:29;;;;;;;5.33;4.93;;;;;;;;;;5062821;28;20433;-73
2022/08/15 12:40:07;;;;;;;5.73;5.20;;;;;;;;;;5059172;28;20447;-75
2022/08/15 12:42:54;;;;;;;8.53;4.70;;;;;;;;;;5070858;28;20912;-75
2022/08/15 12:45:26;;;;;;;4.80;4.40;;;;;;;;;;5070489;28;20540;-74
2022/08/15 12:48:13;;;;;;;5.03;4.57;;;;;;;;;;5077884;28;20493;-74
2022/08/15 12:50:52;;;;;;;5.53;5.03;;;;;;;;;;5057187;28;20443;-74
2022/08/15 12:53:22;;;;;;;5.00;4.60;;;;;;;;;;5071754;28;20540;-74
2022/08/15 12:55:49;;;;;;;5.23;4.83;;;;;;;;;;5073407;28;20535;-74
2022/08/15 12:58:21;;;;;;;5.27;4.87;;;;;;;;;;5092818;28;20519;-74
2022/08/15 13:00:50;;;;;;;5.73;4.70;;;;;;;;;;5064022;28;20440;-73
2022/08/15 13:03:42;;;;;;;5.30;4.77;;;;;;;;;;5080466;28;20417;-73
2022/08/15 13:06:31;;;;;;;5.33;4.07;;;;;;;;;;5080307;28;20460;-74
2022/08/15 13:09:02;;;;;;;4.90;4.50;;;;;;;;;;5071839;28;20473;-74
2022/08/15 13:11:29;;;;;;;4.73;4.27;;;;;;;;;;5064726;28;20433;-74
2022/08/15 13:13:57;;;;;;;5.57;5.17;;;;;;;;;;5069650;28;20535;-74
2022/08/15 13:16:24;;;;;;;4.73;4.40;;;;;;;;;;5057684;28;20433;-74
2022/08/15 13:19:13;;;;;;;5.73;4.73;;;;;;;;;;5067492;28;20491;-74
2022/08/15 13:24:54;;;;;;;4.63;4.23;;;;;;;;;;5071219;28;20787;-74
2022/08/15 13:27:20;;;;;;;4.33;3.93;;;;;;;;;;5053125;28;20461;-74
2022/08/15 13:29:47;;;;;;;3.87;3.57;;;;;;;;;;5085644;28;20447;-74
2022/08/15 13:32:21;;;;;;;3.97;3.67;;;;;;;;;;5064687;28;20912;-74
2022/08/15 13:34:47;;;;;;;4.87;4.47;;;;;;;;;;5069130;28;20433;-74
2022/08/15 13:37:18;;;;;;;3.83;3.57;;;;;;;;;;5069754;28;20501;-75
2022/08/15 13:40:12;;;;;;;3.43;3.00;;;;;;;;;;5049851;28;20533;-74
2022/08/15 13:42:48;;;;;;;4.97;4.37;;;;;;;;;;5065515;28;20467;-75
2022/08/15 13:45:17;;;;;;;3.87;3.67;;;;;;;;;;5069747;28;20433;-75
2022/08/15 13:48:04;;;;;;;4.10;3.10;;;;;;;;;;5069351;28;20469;-75
2022/08/15 13:50:42;;;;;;;3.63;3.00;;;;;;;;;;5056414;28;20516;-75
2022/08/15 13:53:10;;;;;;;3.27;2.97;;;;;;;;;;5053356;28;20432;-74
2022/08/15 13:55:37;;;;;;;3.57;2.80;;;;;;;;;;5067452;28;20896;-74
2022/08/15 13:58:08;;;;;;;5.40;2.90;;;;;;;;;;5065122;28;20457;-74
2022/08/15 14:00:45;;;;;;;3.30;2.60;;;;;;;;;;5070981;28;20412;-74
2022/08/15 14:03:29;;;;;;;3.70;2.50;;;;;;;;;;5056990;28;20952;-74
2022/08/15 14:06:00;;;;;;;2.70;2.50;;;;;;;;;;5088787;28;20900;-74
2022/08/15 14:08:32;;;;;;;3.17;2.33;;;;;;;;;;5073446;28;20464;-74
2022/08/15 14:11:19;;;;;;;2.90;2.40;;;;;;;;;;5064887;28;20424;-74
2022/08/15 14:13:59;;;;;;;2.93;2.53;;;;;;;;;;5086263;28;20420;-75
2022/08/15 14:16:26;;;;;;;4.07;3.10;;;;;;;;;;5082197;28;20439;-74
2022/08/15 14:19:15;;;;;;;3.97;2.47;;;;;;;;;;5058482;28;20502;-74
2022/08/15 14:22:02;;;;;;;4.07;2.80;;;;;;;;;;5054758;28;20424;-74
2022/08/15 14:24:29;;;;;;;2.50;2.30;;;;;;;;;;5082985;28;20915;-74
2022/08/15 14:27:15;;;;;;;2.70;2.50;;;;;;;;;;5081041;28;20517;-74
2022/08/15 14:30:04;;;;;;;2.90;2.63;;;;;;;;;;5081538;28;20440;-74
2022/08/15 14:32:31;;;;;;;3.50;2.90;;;;;;;;;;5072211;28;20423;-74
2022/08/15 14:35:18;;;;;;;3.37;3.07;;;;;;;;;;5081617;28;20982;-74
2022/08/15 14:37:48;;;;;;;3.63;3.43;;;;;;;;;;5082871;28;20471;-74
2022/08/15 14:40:20;;;;;;;3.63;3.33;;;;;;;;;;5070660;28;20671;-74
2022/08/15 14:42:51;;;;;;;4.03;3.50;;;;;;;;;;5069063;28;20437;-74
2022/08/15 14:45:29;;;;;;;2.80;2.33;;;;;;;;;;5070544;28;20451;-74
2022/08/15 14:48:18;;;;;;;3.10;2.80;;;;;;;;;;5060569;28;20492;-74
2022/08/15 14:51:05;;;;;;;2.87;2.67;;;;;;;;;;5082440;28;20504;-73
2022/08/15 14:53:51;;;;;;;4.40;3.17;;;;;;;;;;5099072;28;20427;-73
2022/08/15 14:56:18;;;;;;;2.73;2.53;;;;;;;;;;5079904;28;20447;-74
2022/08/15 14:58:46;;;;;;;2.83;2.30;;;;;;;;;;5079637;28;20453;-73
2022/08/15 15:01:20;;;;;;;2.93;2.73;;;;;;;;;;5078917;28;20787;-74
2022/08/15 15:03:56;;;;;;;3.03;2.73;;;;;;;;;;5076002;28;20864;-73
2022/08/15 15:06:27;;;;;;;3.57;2.53;;;;;;;;;;5093229;28;20487;-74
2022/08/15 15:08:56;;;;;;;3.10;2.90;;;;;;;;;;5075961;28;20494;-74
2022/08/15 15:11:27;;;;;;;3.73;2.90;;;;;;;;;;5087376;28;20427;-74
2022/08/15 15:13:53;;;;;;;3.43;2.70;;;;;;;;;;5084053;28;20474;-74
2022/08/15 15:16:23;;;;;;;4.67;2.50;;;;;;;;;;5064637;28;20441;-74
2022/08/15 15:19:09;;;;;;;3.20;3.00;;;;;;;;;;5068843;28;21042;-74
2022/08/15 15:21:36;;;;;;;2.60;2.40;;;;;;;;;;5076793;28;20416;-74
2022/08/15 15:24:03;;;;;;;2.80;2.53;;;;;;;;;;5071915;28;20436;-75
2022/08/15 15:26:30;;;;;;;2.40;2.20;;;;;;;;;;5091139;28;20420;-75
2022/08/15 15:29:03;;;;;;;2.30;2.20;;;;;;;;;;5062190;28;20536;-75
2022/08/15 15:31:33;;;;;;;2.33;2.10;;;;;;;;;;5075857;28;20444;-75
2022/08/15 15:34:07;;;;;;;2.80;2.60;;;;;;;;;;5081799;28;20415;-75
2022/08/15 15:36:41;;;;;;;2.80;2.30;;;;;;;;;;5052510;28;20507;-75
2022/08/15 15:39:14;;;;;;;2.80;2.60;;;;;;;;;;5086413;28;20463;-76
2022/08/15 15:41:43;;;;;;;2.20;2.10;;;;;;;;;;5095947;28;20439;-76